CST,Max TemperatureF,Mean TemperatureF,Min TemperatureF,Max Dew PointF,MeanDew PointF,Min DewpointF,Max Humidity, Mean Humidity, Min Humidity, Max Sea Level PressureIn, Mean Sea Level PressureIn, Min Sea Level PressureIn, Max VisibilityMiles, Mean VisibilityMiles, Min VisibilityMiles, Max Wind SpeedMPH, Mean Wind SpeedMPH, Max Gust SpeedMPH,PrecipitationIn, CloudCover, Events, WindDirDegrees
2014-2-1,67,59,51,57,51,46,94,87,64,30.16,30.12,30.08,10,6,0,9,3,,0.00,5,Fog,104
2014-2-2,69,61,53,52,47,43,82,62,43,30.16,30.09,30.03,10,4,0,18,8,23,0.00,8,,123
2014-2-3,68,64,59,54,47,41,64,55,42,30.10,30.06,30.02,10,2,0,12,7,,0.01,8,Fog-Rain,124
2014-2-4,68,64,59,63,51,27,88,64,27,30.13,30.04,29.99,10,3,0,18,7,24,0.01,8,Fog-Rain,131
2014-2-5,72,58,42,64,55,22,94,74,37,30.23,30.02,29.97,10,4,0,18,14,29,0.03,5,Fog-Rain,211
2014-2-6,42,40,38,27,24,19,61,52,39,30.31,30.25,30.17,10,10,4,14,10,24,0.12,6,Rain,19
2014-2-7,61,48,36,35,30,24,61,50,34,30.32,30.25,30.19,10,10,10,10,7,,0.00,1,,33
2014-2-8,62,54,46,46,39,32,76,68,49,30.24,30.18,30.12,10,7,0,13,5,,0.23,4,Rain,27
2014-2-9,63,52,41,45,37,32,76,69,47,30.21,30.14,30.11,10,6,0,9,1,,0.00,0,,270
2014-2-10,66,54,42,50,40,34,71,68,51,30.17,30.11,30.07,10,6,1,10,1,,0.00,0,,147
2014-2-11,65,56,46,49,42,36,77,64,50,30.14,30.07,30.03,10,6,0,12,3,17,0.47,5,Fog-Rain,60
2014-2-12,53,47,40,41,36,27,66,61,57,30.08,29.87,29.71,10,7,0,23,10,33,1.31,8,Rain-Thunderstorm,39
2014-2-13,55,48,40,33,27,23,66,51,34,30.03,29.92,29.82,10,10,10,17,12,24,0.01,5,,319
2014-2-14,60,48,37,50,38,28,70,60,39,30.08,29.98,29.86,10,9,4,15,5,21,0.00,3,Fog,216
2014-2-15,62,52,42,50,39,30,81,60,33,30.19,30.04,29.84,10,9,3,37,15,48,0.03,2,Rain,316
2014-2-16,63,51,39,48,38,32,82,71,43,30.25,30.18,30.14,10,8,2,8,1,,0.00,0,,174
2014-2-17,68,55,42,54,43,36,81,73,51,30.25,30.19,30.17,10,6,1,15,3,,0.00,2,,151
2014-2-18,71,64,57,59,55,49,80,69,57,30.24,30.20,30.14,10,10,10,12,7,,0.00,3,,189
2014-2-19,71,63,55,62,54,48,83,75,61,30.18,30.13,30.07,10,6,0,13,5,,0.00,5,Fog,154
2014-2-20,73,68,62,66,59,54,88,78,68,30.12,30.05,29.99,10,6,0,23,11,29,0.01,7,Fog,149
2014-2-21,72,64,55,63,55,39,88,73,48,30.09,29.99,29.91,10,5,0,21,12,33,1.31,5,Rain-Thunderstorm,203
2014-2-22,72,61,50,53,44,34,84,61,40,30.17,30.10,30.07,10,10,10,10,5,,0.00,1,,57
2014-2-23,64,60,57,59,56,48,83,78,72,30.11,30.04,29.97,10,7,0,15,5,,1.06,7,Rain-Thunderstorm,122
2014-2-24,74,68,61,60,55,54,83,73,56,30.12,30.04,29.99,10,6,1,12,3,17,0.08,6,,4
2014-2-25,71,63,55,60,54,46,88,77,60,30.10,30.02,29.95,10,6,0,10,2,,0.00,0,,244
2014-2-26,64,54,43,58,49,26,82,74,49,29.98,29.88,29.81,10,7,0,15,5,23,0.77,7,Rain-Thunderstorm,358
2014-2-27,53,46,38,33,24,14,75,47,26,30.06,30.02,29.97,10,10,10,12,8,21,0.00,1,,360
2014-2-28,58,48,38,39,29,20,80,51,29,30.17,30.11,30.04,10,10,10,10,6,,0.00,0,,81